createdAt,value
2022-09-15T00:02:22.281Z,18.34
2022-09-15T00:04:50.946Z,18.32
2022-09-15T00:07:20.842Z,18.28
2022-09-15T00:09:49.454Z,18.31
2022-09-15T00:12:18.115Z,18.29
2022-09-15T00:14:46.694Z,18.30
2022-09-15T00:17:15.398Z,18.27
2022-09-15T00:19:43.939Z,18.24
2022-09-15T00:22:12.909Z,18.18
2022-09-15T00:24:41.783Z,18.15
2022-09-15T00:27:10.360Z,18.11
2022-09-15T00:29:38.890Z,18.07
2022-09-15T00:32:07.696Z,18.03
2022-09-15T00:34:36.828Z,17.99
2022-09-15T00:37:07.419Z,17.98
2022-09-15T00:39:36.222Z,17.95
2022-09-15T00:42:05.154Z,17.95
2022-09-15T00:44:36.570Z,17.97
2022-09-15T00:47:19.315Z,17.96
2022-09-15T00:49:59.334Z,17.99
2022-09-15T00:52:49.799Z,17.98
2022-09-15T00:55:42.793Z,17.90
2022-09-15T00:58:31.029Z,17.78
2022-09-15T01:01:03.405Z,17.76
2022-09-15T01:03:34.305Z,17.59
2022-09-15T01:06:13.439Z,17.52
2022-09-15T01:09:15.121Z,17.49
2022-09-15T01:11:43.903Z,17.45
2022-09-15T01:14:13.358Z,17.44
2022-09-15T01:17:07.776Z,17.44
2022-09-15T01:20:20.828Z,17.45
2022-09-15T01:23:00.961Z,17.46
2022-09-15T01:25:59.849Z,17.44
2022-09-15T01:29:02.284Z,17.44
2022-09-15T01:32:13.216Z,17.29
2022-09-15T01:34:56.948Z,17.18
2022-09-15T01:37:32.910Z,17.17
2022-09-15T01:40:03.009Z,17.11
2022-09-15T01:42:33.651Z,17.15
2022-09-15T01:45:10.509Z,17.17
2022-09-15T01:47:40.232Z,17.18
2022-09-15T01:50:24.081Z,17.23
2022-09-15T01:52:57.652Z,17.24
2022-09-15T01:55:50.125Z,17.15
2022-09-15T01:58:18.772Z,17.14
2022-09-15T02:01:15.805Z,17.11
2022-09-15T02:03:56.153Z,17.19
2022-09-15T02:06:43.296Z,17.22
2022-09-15T02:09:21.030Z,17.18
2022-09-15T02:12:01.383Z,17.16
2022-09-15T02:15:03.614Z,17.15
2022-09-15T02:17:36.332Z,17.06
2022-09-15T02:20:39.067Z,17.06
2022-09-15T02:23:37.841Z,17.07
2022-09-15T02:26:14.261Z,17.06
2022-09-15T02:28:45.595Z,17.01
2022-09-15T02:31:18.408Z,16.96
2022-09-15T02:33:55.541Z,16.92
2022-09-15T02:36:26.716Z,16.90
2022-09-15T02:39:02.391Z,16.83
2022-09-15T02:41:31.034Z,16.82
2022-09-15T02:43:59.570Z,16.76
2022-09-15T02:46:28.551Z,16.75
2022-09-15T02:48:59.691Z,16.70
2022-09-15T02:51:28.371Z,16.65
2022-09-15T02:53:56.841Z,16.64
2022-09-15T02:56:26.412Z,16.65
2022-09-15T02:58:54.990Z,16.63
2022-09-15T03:01:32.402Z,16.56
2022-09-15T03:04:05.907Z,16.55
2022-09-15T03:06:37.100Z,16.60
2022-09-15T03:09:07.996Z,16.61
2022-09-15T03:11:37.235Z,16.59
2022-09-15T03:14:07.161Z,16.61
2022-09-15T03:16:36.296Z,16.65
2022-09-15T03:19:05.855Z,16.63
2022-09-15T03:21:35.884Z,16.57
2022-09-15T03:24:04.762Z,16.52
2022-09-15T03:26:34.512Z,16.49
2022-09-15T03:29:03.265Z,16.49
2022-09-15T03:31:31.969Z,16.51
2022-09-15T03:34:00.527Z,16.49
2022-09-15T03:36:29.119Z,16.45
2022-09-15T03:38:58.804Z,16.43
2022-09-15T03:41:30.482Z,16.44
2022-09-15T03:44:04.417Z,16.43
2022-09-15T03:46:35.806Z,16.42
2022-09-15T03:49:04.381Z,16.25
2022-09-15T03:51:33.015Z,16.20
2022-09-15T03:54:01.627Z,16.18
2022-09-15T03:56:32.766Z,16.14
2022-09-15T03:59:03.725Z,16.02
2022-09-15T04:01:33.500Z,16.14
2022-09-15T04:04:02.673Z,16.25
2022-09-15T04:06:31.506Z,16.28
2022-09-15T04:09:03.334Z,16.37
2022-09-15T04:11:32.914Z,16.42
2022-09-15T04:14:39.314Z,16.45
2022-09-15T04:17:07.973Z,16.50
2022-09-15T04:19:37.900Z,16.52
2022-09-15T04:22:07.194Z,16.54
2022-09-15T04:24:38.436Z,16.50
2022-09-15T04:27:07.413Z,16.49
2022-09-15T04:29:36.546Z,16.48
2022-09-15T04:32:05.702Z,16.59
2022-09-15T04:34:39.276Z,16.61
2022-09-15T04:37:10.475Z,16.66
2022-09-15T04:39:39.147Z,16.74
2022-09-15T04:42:08.390Z,16.83
2022-09-15T04:44:51.136Z,16.83
2022-09-15T04:47:19.960Z,16.91
2022-09-15T04:49:48.641Z,16.90
2022-09-15T04:52:17.471Z,16.99
2022-09-15T04:54:46.117Z,17.05
2022-09-15T04:57:14.659Z,17.12
2022-09-15T04:59:43.319Z,17.21
2022-09-15T05:02:12.141Z,17.32
2022-09-15T05:04:41.052Z,17.43
2022-09-15T05:07:09.650Z,17.51
2022-09-15T05:09:38.408Z,17.56
2022-09-15T05:12:07.497Z,17.62
2022-09-15T05:14:36.009Z,17.71
2022-09-15T05:17:04.667Z,17.82
2022-09-15T05:19:33.229Z,17.89
2022-09-15T05:22:01.763Z,17.99
2022-09-15T05:24:30.432Z,17.94
2022-09-15T05:26:59.075Z,17.96
2022-09-15T05:29:27.620Z,17.86
2022-09-15T05:31:56.253Z,18.08
2022-09-15T05:34:25.083Z,18.31
2022-09-15T05:36:53.607Z,18.52
2022-09-15T05:39:22.155Z,18.75
2022-09-15T05:41:50.696Z,19.00
2022-09-15T05:44:21.500Z,19.24
2022-09-15T05:46:50.324Z,19.42
2022-09-15T05:49:18.906Z,19.54
2022-09-15T05:51:47.426Z,19.69
2022-09-15T05:54:16.042Z,19.85
2022-09-15T05:56:44.510Z,20.01
2022-09-15T05:59:13.169Z,20.16
2022-09-15T06:02:07.395Z,20.13
2022-09-15T06:04:36.003Z,19.90
2022-09-15T06:07:04.570Z,19.81
2022-09-15T06:09:33.145Z,19.85
2022-09-15T06:12:02.012Z,19.95
2022-09-15T06:14:30.589Z,20.08
2022-09-15T06:16:59.244Z,20.24
2022-09-15T06:19:27.929Z,20.38
2022-09-15T06:21:56.569Z,20.55
2022-09-15T06:24:25.103Z,20.74
2022-09-15T06:26:53.706Z,20.94
2022-09-15T06:29:22.274Z,21.07
2022-09-15T06:31:51.134Z,21.21
2022-09-15T06:34:20.068Z,21.37
2022-09-15T06:36:48.455Z,21.44
2022-09-15T06:39:43.520Z,21.56
2022-09-15T06:42:13.790Z,21.69
2022-09-15T06:44:43.641Z,21.77
2022-09-15T06:47:15.804Z,21.83
2022-09-15T06:49:44.188Z,21.95
2022-09-15T06:52:12.759Z,21.99
2022-09-15T06:54:41.330Z,22.02
2022-09-15T06:57:10.008Z,22.02
2022-09-15T06:59:38.655Z,22.06
2022-09-15T07:02:10.561Z,21.96
2022-09-15T07:04:39.449Z,21.93
2022-09-15T07:07:08.116Z,21.90
2022-09-15T07:09:39.858Z,21.94
2022-09-15T07:12:10.023Z,21.87
2022-09-15T07:14:38.650Z,21.91
2022-09-15T07:17:07.281Z,21.91
2022-09-15T07:19:35.754Z,21.83
2022-09-15T07:22:04.380Z,21.84
2022-09-15T07:24:32.967Z,21.80
2022-09-15T07:27:01.738Z,21.73
2022-09-15T07:29:30.245Z,21.69
2022-09-15T07:31:58.801Z,21.67
2022-09-15T07:34:27.393Z,21.65
2022-09-15T07:36:55.902Z,21.61
2022-09-15T07:39:24.474Z,21.58
2022-09-15T07:41:53.028Z,21.56
2022-09-15T07:44:21.856Z,21.52
2022-09-15T07:46:50.439Z,21.47
2022-09-15T07:49:18.965Z,21.48
2022-09-15T07:51:47.607Z,21.48
2022-09-15T07:54:20.759Z,21.47
2022-09-15T07:56:50.774Z,21.54
2022-09-15T07:59:19.477Z,21.56
2022-09-15T08:01:48.182Z,21.62
2022-09-15T08:04:16.881Z,21.69
2022-09-15T08:06:45.609Z,21.72
2022-09-15T08:09:17.533Z,21.80
2022-09-15T08:11:46.040Z,21.84
2022-09-15T08:14:15.278Z,21.89
2022-09-15T08:16:43.887Z,21.91
2022-09-15T08:19:12.539Z,21.94
2022-09-15T08:21:41.098Z,21.95
2022-09-15T08:24:09.798Z,21.92
2022-09-15T08:26:38.687Z,21.91
2022-09-15T08:29:21.796Z,21.94
2022-09-15T08:31:50.568Z,21.93
2022-09-15T08:34:19.267Z,21.90
2022-09-15T08:36:47.894Z,21.95
2022-09-15T08:39:16.462Z,21.95
2022-09-15T08:41:49.491Z,22.01
2022-09-15T08:44:38.486Z,22.04
2022-09-15T08:47:22.961Z,22.06
2022-09-15T08:50:08.194Z,22.03
2022-09-15T08:52:55.887Z,22.04
2022-09-15T08:55:49.626Z,22.00
2022-09-15T08:58:22.183Z,22.02
2022-09-15T09:01:14.785Z,22.07
2022-09-15T09:03:55.340Z,22.12
2022-09-15T09:06:59.898Z,22.09
2022-09-15T09:10:26.716Z,22.12
2022-09-15T09:13:35.718Z,22.16
2022-09-15T09:16:43.596Z,22.20
2022-09-15T09:19:45.881Z,22.17
2022-09-15T09:22:23.223Z,22.07
2022-09-15T09:24:55.461Z,21.90
2022-09-15T09:27:29.751Z,21.79
2022-09-15T09:30:20.272Z,21.77
2022-09-15T09:33:24.392Z,21.78
2022-09-15T09:35:53.478Z,21.77
2022-09-15T09:38:39.456Z,21.79
2022-09-15T09:41:19.892Z,21.84
2022-09-15T09:43:49.825Z,21.94
2022-09-15T09:46:20.458Z,22.08
2022-09-15T09:49:04.238Z,22.24
2022-09-15T09:51:52.343Z,22.44
2022-09-15T09:54:25.151Z,22.59
2022-09-15T09:56:55.888Z,22.68
2022-09-15T09:59:45.718Z,22.81
2022-09-15T10:02:29.274Z,22.92
2022-09-15T10:05:05.860Z,23.08
2022-09-15T10:07:40.909Z,23.22
2022-09-15T10:10:24.265Z,23.38
2022-09-15T10:12:57.029Z,23.53
2022-09-15T10:15:34.763Z,23.61
2022-09-15T10:18:03.365Z,23.67
2022-09-15T10:20:40.297Z,23.84
2022-09-15T10:23:34.975Z,24.00
2022-09-15T10:26:15.588Z,24.14
2022-09-15T10:29:16.242Z,24.32
2022-09-15T10:31:46.530Z,24.55
2022-09-15T10:34:32.066Z,24.70
2022-09-15T10:37:32.646Z,24.83
2022-09-15T10:40:11.160Z,25.03
2022-09-15T10:42:53.337Z,25.08
2022-09-15T10:45:33.024Z,25.12
2022-09-15T10:48:11.983Z,25.21
2022-09-15T10:51:11.767Z,25.23
2022-09-15T10:54:07.970Z,25.38
2022-09-15T10:56:47.879Z,25.39
2022-09-15T10:59:56.783Z,25.52
2022-09-15T11:02:55.484Z,25.62
2022-09-15T11:05:39.780Z,25.77
2022-09-15T11:08:26.555Z,25.77
2022-09-15T11:11:16.023Z,25.70
2022-09-15T11:14:11.492Z,25.70
2022-09-15T11:17:38.395Z,25.68
2022-09-15T11:21:03.452Z,25.63
2022-09-15T11:23:38.544Z,25.60
2022-09-15T11:26:38.661Z,25.63
2022-09-15T11:29:52.597Z,25.61
2022-09-15T11:32:39.238Z,25.62
2022-09-15T11:35:07.588Z,25.63
2022-09-15T11:37:46.179Z,25.67
2022-09-15T11:40:36.439Z,25.77
2022-09-15T11:43:30.108Z,25.81
2022-09-15T11:46:02.305Z,25.92
2022-09-15T11:48:40.432Z,26.03
2022-09-15T11:51:12.091Z,26.02
2022-09-15T11:53:54.113Z,25.95
2022-09-15T11:56:44.059Z,25.88
2022-09-15T11:59:22.408Z,25.79
2022-09-15T12:02:21.417Z,25.63
2022-09-15T12:05:12.809Z,25.55
2022-09-15T12:08:05.335Z,25.47
2022-09-15T12:10:56.859Z,25.45
2022-09-15T12:13:27.296Z,25.41
2022-09-15T12:15:56.565Z,25.48
2022-09-15T12:18:47.068Z,25.47
2022-09-15T12:21:47.307Z,25.50
2022-09-15T12:24:49.780Z,25.52
2022-09-15T12:27:22.340Z,25.54
2022-09-15T12:30:01.026Z,25.54
2022-09-15T12:32:35.918Z,25.50
2022-09-15T12:35:04.534Z,25.51
2022-09-15T12:38:03.465Z,25.53
2022-09-15T12:40:40.642Z,25.60
2022-09-15T12:43:12.930Z,25.61
2022-09-15T12:45:57.359Z,25.66
2022-09-15T12:48:31.053Z,25.74
2022-09-15T12:51:05.119Z,25.80
2022-09-15T12:54:05.049Z,25.82
2022-09-15T12:56:35.132Z,25.88
2022-09-15T12:59:12.263Z,25.96
2022-09-15T13:01:50.841Z,26.09
2022-09-15T13:04:42.012Z,26.24
2022-09-15T13:07:16.388Z,26.32
2022-09-15T13:09:56.158Z,26.30
2022-09-15T13:12:33.371Z,26.24
2022-09-15T13:15:07.037Z,26.23
2022-09-15T13:17:36.689Z,26.16
2022-09-15T13:20:16.963Z,26.10
2022-09-15T13:22:51.060Z,25.99
2022-09-15T13:25:27.785Z,26.00
2022-09-15T13:28:01.581Z,25.98
2022-09-15T13:31:12.270Z,25.98
2022-09-15T13:40:22.446Z,25.76
2022-09-15T13:42:51.046Z,25.66
2022-09-15T13:45:40.721Z,25.62
2022-09-15T13:48:46.993Z,25.51
2022-09-15T13:51:29.392Z,25.41
2022-09-15T13:54:03.330Z,25.40
2022-09-15T13:56:41.595Z,25.45
2022-09-15T13:59:24.193Z,25.56
2022-09-15T14:01:56.570Z,25.70
2022-09-15T14:04:31.078Z,25.79
2022-09-15T14:07:01.953Z,25.89
2022-09-15T14:09:42.944Z,25.99
2022-09-15T14:12:15.417Z,26.06
2022-09-15T14:14:50.987Z,26.07
2022-09-15T14:17:27.612Z,26.04
2022-09-15T14:19:59.898Z,26.09
2022-09-15T14:22:34.266Z,26.13
2022-09-15T14:25:14.561Z,26.30
2022-09-15T14:27:46.999Z,26.46
2022-09-15T14:30:32.229Z,26.58
2022-09-15T14:33:02.975Z,26.67
2022-09-15T14:35:37.450Z,26.70
2022-09-15T14:38:05.958Z,26.67
2022-09-15T14:40:39.603Z,26.64
2022-09-15T14:43:31.301Z,26.62
2022-09-15T14:46:19.355Z,26.56
2022-09-15T14:49:15.159Z,26.50
2022-09-15T14:51:45.673Z,26.41
2022-09-15T14:54:37.050Z,26.33
2022-09-15T14:57:08.366Z,26.24
2022-09-15T14:59:49.842Z,26.15
2022-09-15T15:02:42.514Z,26.05
2022-09-15T15:05:23.276Z,25.96
2022-09-15T15:07:52.695Z,25.89
2022-09-15T15:10:32.240Z,25.80
2022-09-15T15:13:15.901Z,25.70
2022-09-15T15:15:49.738Z,25.58
2022-09-15T15:18:42.344Z,25.51
2022-09-15T15:21:44.373Z,25.43
2022-09-15T15:24:12.969Z,25.32
2022-09-15T15:26:44.662Z,25.28
2022-09-15T15:29:43.273Z,25.20
2022-09-15T15:32:20.636Z,25.15
2022-09-15T15:35:19.651Z,25.07
2022-09-15T15:37:49.486Z,24.98
2022-09-15T15:40:23.354Z,24.92
2022-09-15T15:43:21.589Z,24.81
2022-09-15T15:46:01.369Z,24.72
2022-09-15T15:48:38.192Z,24.60
2022-09-15T15:51:07.884Z,24.54
2022-09-15T15:53:36.583Z,24.44
2022-09-15T15:56:08.160Z,24.39
2022-09-15T15:58:36.989Z,24.28
2022-09-15T16:01:05.765Z,24.22
2022-09-15T16:03:34.359Z,24.14
2022-09-15T16:06:03.161Z,24.07
2022-09-15T16:08:38.274Z,24.02
2022-09-15T16:11:12.052Z,23.95
2022-09-15T16:13:41.851Z,23.91
2022-09-15T16:16:23.318Z,23.83
2022-09-15T16:18:53.059Z,23.77
2022-09-15T16:21:29.960Z,23.72
2022-09-15T16:23:58.719Z,23.66
2022-09-15T16:26:28.521Z,23.62
2022-09-15T16:28:57.213Z,23.57
2022-09-15T16:31:25.868Z,23.55
2022-09-15T16:33:54.536Z,23.47
2022-09-15T16:36:23.273Z,23.43
2022-09-15T16:38:51.938Z,23.39
2022-09-15T16:41:25.882Z,23.34
2022-09-15T16:43:56.093Z,23.28
2022-09-15T16:46:25.351Z,23.21
2022-09-15T16:48:54.078Z,23.15
2022-09-15T16:51:29.748Z,23.13
2022-09-15T16:54:00.139Z,23.09
2022-09-15T16:56:28.810Z,23.06
2022-09-15T16:59:00.399Z,23.02
2022-09-15T17:01:29.384Z,23.00
2022-09-15T17:03:58.042Z,22.98
2022-09-15T17:06:26.701Z,22.93
2022-09-15T17:08:55.964Z,22.90
2022-09-15T17:11:26.533Z,22.86
2022-09-15T17:13:55.210Z,22.82
2022-09-15T17:16:23.967Z,22.79
2022-09-15T17:18:55.684Z,22.76
2022-09-15T17:21:24.269Z,22.72
2022-09-15T17:23:52.856Z,22.63
2022-09-15T17:26:30.457Z,22.63
2022-09-15T17:29:00.009Z,22.57
2022-09-15T17:31:28.718Z,22.50
2022-09-15T17:33:57.281Z,22.44
2022-09-15T17:36:26.275Z,22.37
2022-09-15T17:38:54.883Z,22.27
2022-09-15T17:41:23.419Z,22.21
2022-09-15T17:43:53.532Z,22.14
2022-09-15T17:46:22.155Z,22.10
2022-09-15T17:48:50.721Z,22.02
2022-09-15T17:51:19.372Z,21.96
2022-09-15T17:53:48.053Z,21.92
2022-09-15T17:56:17.031Z,21.91
2022-09-15T17:58:46.063Z,21.90
2022-09-15T18:01:15.871Z,21.86
2022-09-15T18:03:45.592Z,21.86
2022-09-15T18:06:14.724Z,21.84
2022-09-15T18:08:43.336Z,21.78
2022-09-15T18:11:15.235Z,21.74
2022-09-15T18:13:44.028Z,21.71
2022-09-15T18:16:14.982Z,21.68
2022-09-15T18:18:44.789Z,21.69
2022-09-15T18:21:27.141Z,21.70
2022-09-15T18:23:56.223Z,21.70
2022-09-15T18:26:39.560Z,21.72
2022-09-15T18:29:08.115Z,21.73
2022-09-15T18:31:36.698Z,21.75
2022-09-15T18:34:05.397Z,21.78
2022-09-15T18:36:35.255Z,21.77
2022-09-15T18:39:05.470Z,21.78
2022-09-15T18:41:40.589Z,21.79
2022-09-15T18:44:09.230Z,21.79
2022-09-15T18:46:39.768Z,21.80
2022-09-15T18:49:12.433Z,21.80
2022-09-15T18:51:51.512Z,21.79
2022-09-15T18:54:20.665Z,21.78
2022-09-15T18:56:49.304Z,21.73
2022-09-15T18:59:18.013Z,21.72
2022-09-15T19:01:46.677Z,21.69
2022-09-15T19:04:17.310Z,21.66
2022-09-15T19:06:50.746Z,21.59
2022-09-15T19:09:20.149Z,21.55
2022-09-15T19:11:50.532Z,21.54
2022-09-15T19:14:19.518Z,21.51
2022-09-15T19:16:57.703Z,21.52
2022-09-15T19:19:27.106Z,21.50
2022-09-15T19:21:56.990Z,21.45
2022-09-15T19:24:32.081Z,21.44
2022-09-15T19:27:02.514Z,21.40
2022-09-15T19:29:34.980Z,21.38
2022-09-15T19:32:13.765Z,21.37
2022-09-15T19:34:42.330Z,21.34
2022-09-15T19:37:17.848Z,21.32
2022-09-15T19:39:48.374Z,21.36
2022-09-15T19:42:17.353Z,21.38
2022-09-15T19:44:48.049Z,21.43
2022-09-15T19:47:16.612Z,21.44
2022-09-15T19:49:45.266Z,21.46
2022-09-15T19:52:14.026Z,21.45
2022-09-15T19:54:50.790Z,21.46
2022-09-15T19:57:19.367Z,21.45
2022-09-15T19:59:47.921Z,21.44
2022-09-15T20:02:16.785Z,21.46
2022-09-15T20:04:50.001Z,21.47
2022-09-15T20:07:18.557Z,21.48
2022-09-15T20:09:47.700Z,21.48
2022-09-15T20:12:16.377Z,21.48
2022-09-15T20:14:45.075Z,21.47
2022-09-15T20:17:14.097Z,21.50
2022-09-15T20:19:42.729Z,21.49
2022-09-15T20:22:11.292Z,21.49
2022-09-15T20:24:40.676Z,21.54
2022-09-15T20:27:09.288Z,21.55
2022-09-15T20:29:38.853Z,21.58
2022-09-15T20:32:07.428Z,21.62
2022-09-15T20:34:35.997Z,21.60
2022-09-15T20:37:04.951Z,21.62
2022-09-15T20:39:33.484Z,21.63
2022-09-15T20:42:02.090Z,21.65
2022-09-15T20:44:30.649Z,21.64
2022-09-15T20:46:59.180Z,21.64
2022-09-15T20:49:28.089Z,21.64
2022-09-15T20:51:56.599Z,21.66
2022-09-15T20:54:25.216Z,21.63
2022-09-15T20:56:53.741Z,21.63
2022-09-15T20:59:22.184Z,21.62
2022-09-15T21:01:50.791Z,21.62
2022-09-15T21:04:20.210Z,21.60
2022-09-15T21:06:48.859Z,21.57
2022-09-15T21:09:17.779Z,21.56
2022-09-15T21:11:50.132Z,21.54
2022-09-15T21:14:21.559Z,21.57
2022-09-15T21:16:50.657Z,21.57
2022-09-15T21:19:19.361Z,21.59
2022-09-15T21:21:48.125Z,21.62
2022-09-15T21:24:17.214Z,21.62
2022-09-15T21:27:04.385Z,21.66
2022-09-15T21:29:32.921Z,21.72
2022-09-15T21:32:17.452Z,21.73
2022-09-15T21:34:47.411Z,21.75
2022-09-15T21:37:15.950Z,21.77
2022-09-15T21:39:44.472Z,21.79
2022-09-15T21:42:13.309Z,21.82
2022-09-15T21:44:42.211Z,21.82
2022-09-15T21:47:10.778Z,21.82
2022-09-15T21:49:39.299Z,21.78
2022-09-15T21:52:07.812Z,21.80
2022-09-15T21:54:36.394Z,21.82
2022-09-15T21:57:05.214Z,21.83
2022-09-15T21:59:33.719Z,21.80
2022-09-15T22:02:02.583Z,21.83
2022-09-15T22:04:31.369Z,21.86
2022-09-15T22:06:59.894Z,21.88
2022-09-15T22:09:28.344Z,21.90
2022-09-15T22:11:56.838Z,21.93
2022-09-15T22:14:27.577Z,22.01
2022-09-15T22:16:56.163Z,22.06
2022-09-15T22:19:24.667Z,22.14
2022-09-15T22:21:53.267Z,22.27
2022-09-15T22:24:21.730Z,22.35
2022-09-15T22:26:50.265Z,22.41
2022-09-15T22:29:18.869Z,22.47
2022-09-15T22:31:47.648Z,22.47
2022-09-15T22:34:16.303Z,22.47
2022-09-15T22:36:44.983Z,22.44
2022-09-15T22:39:13.519Z,22.43
2022-09-15T22:41:42.370Z,22.42
2022-09-15T22:44:20.209Z,22.42
2022-09-15T22:46:50.090Z,22.38
2022-09-15T22:49:18.941Z,22.39
2022-09-15T22:51:47.476Z,22.39
2022-09-15T22:54:16.053Z,22.31
2022-09-15T22:56:47.142Z,22.29
2022-09-15T22:59:17.176Z,22.24
2022-09-15T23:01:46.457Z,22.18
2022-09-15T23:04:15.612Z,22.14
2022-09-15T23:06:44.110Z,22.10
2022-09-15T23:09:12.993Z,22.02
2022-09-15T23:11:41.902Z,22.00
2022-09-15T23:14:17.865Z,21.96
2022-09-15T23:16:46.565Z,21.87
2022-09-15T23:19:15.263Z,21.85
2022-09-15T23:21:43.916Z,21.84
2022-09-15T23:24:12.681Z,21.83
2022-09-15T23:26:41.360Z,21.82
2022-09-15T23:29:10.287Z,21.81
2022-09-15T23:31:38.924Z,21.80
2022-09-15T23:34:07.514Z,21.79
2022-09-15T23:36:36.040Z,21.80
2022-09-15T23:39:04.771Z,21.78
2022-09-15T23:41:33.315Z,21.75
2022-09-15T23:44:02.180Z,21.71
2022-09-15T23:46:31.067Z,21.70
2022-09-15T23:48:59.781Z,21.72
2022-09-15T23:51:28.419Z,21.75
2022-09-15T23:53:57.030Z,21.77
2022-09-15T23:56:25.485Z,21.81
2022-09-15T23:58:54.286Z,21.81
